createdAt,value
2019-03-27T00:00:27.510Z,12.70
2019-03-27T00:02:47.683Z,8.70
2019-03-27T00:05:08.345Z,10.75
2019-03-27T00:07:29.004Z,10.40
2019-03-27T00:09:49.503Z,8.95
2019-03-27T00:12:09.999Z,9.43
2019-03-27T00:14:30.533Z,10.65
2019-03-27T00:16:51.123Z,9.55
2019-03-27T00:19:11.778Z,10.25
2019-03-27T00:21:32.355Z,9.23
2019-03-27T00:23:53.027Z,11.95
2019-03-27T00:26:13.481Z,14.28
2019-03-27T00:28:34.076Z,12.28
2019-03-27T00:30:55.800Z,9.35
2019-03-27T00:33:16.549Z,11.88
2019-03-27T00:35:37.129Z,15.10
2019-03-27T00:37:58.724Z,11.45
2019-03-27T00:40:20.499Z,11.03
2019-03-27T00:42:41.057Z,10.38
2019-03-27T00:45:01.905Z,10.40
2019-03-27T00:47:22.444Z,8.73
2019-03-27T00:49:42.896Z,9.78
2019-03-27T00:52:03.503Z,11.85
2019-03-27T00:54:24.261Z,8.00
2019-03-27T00:56:44.807Z,7.72
2019-03-27T00:59:05.330Z,9.00
2019-03-27T01:01:26.818Z,9.30
2019-03-27T01:03:47.370Z,10.00
2019-03-27T01:06:08.144Z,9.28
2019-03-27T01:08:28.847Z,10.35
2019-03-27T01:10:52.585Z,12.43
2019-03-27T01:13:13.196Z,9.15
2019-03-27T01:15:40.346Z,13.78
2019-03-27T01:18:01.311Z,9.13
2019-03-27T01:20:21.870Z,8.75
2019-03-27T01:22:42.685Z,9.38
2019-03-27T01:25:03.403Z,8.20
2019-03-27T01:27:24.050Z,9.65
2019-03-27T01:29:44.710Z,9.95
2019-03-27T01:32:06.780Z,8.08
2019-03-27T01:34:27.353Z,11.88
2019-03-27T01:36:47.883Z,8.93
2019-03-27T01:39:08.545Z,10.53
2019-03-27T01:41:29.318Z,12.43
2019-03-27T01:43:49.839Z,12.80
2019-03-27T01:46:11.479Z,7.08
2019-03-27T01:48:33.153Z,8.63
2019-03-27T01:50:53.657Z,9.00
2019-03-27T01:53:14.144Z,13.80
2019-03-27T01:55:34.807Z,8.40
2019-03-27T01:57:55.293Z,9.35
2019-03-27T02:00:16.053Z,8.00
2019-03-27T02:02:36.695Z,10.05
2019-03-27T02:04:57.210Z,8.03
2019-03-27T02:07:17.650Z,10.20
2019-03-27T02:09:38.368Z,8.28
2019-03-27T02:11:59.092Z,7.30
2019-03-27T02:14:19.869Z,9.15
2019-03-27T02:16:40.400Z,11.03
2019-03-27T02:19:01.038Z,7.60
2019-03-27T02:21:24.306Z,10.75
2019-03-27T02:23:49.922Z,8.73
2019-03-27T02:26:11.761Z,11.53
2019-03-27T02:28:32.390Z,8.48
2019-03-27T02:30:53.019Z,12.65
2019-03-27T02:33:13.614Z,8.33
2019-03-27T02:35:34.108Z,8.43
2019-03-27T02:37:54.631Z,9.78
2019-03-27T02:40:15.265Z,10.55
2019-03-27T02:42:35.987Z,8.33
2019-03-27T02:44:56.556Z,8.10
2019-03-27T02:47:17.154Z,9.18
2019-03-27T02:49:37.848Z,9.25
2019-03-27T02:51:58.390Z,9.28
2019-03-27T02:54:18.935Z,8.08
2019-03-27T02:56:39.467Z,8.65
2019-03-27T02:59:00.096Z,11.80
2019-03-27T03:01:20.726Z,8.08
2019-03-27T03:03:41.287Z,9.68
2019-03-27T03:06:01.865Z,8.20
2019-03-27T03:08:23.682Z,9.23
2019-03-27T03:10:45.929Z,10.58
2019-03-27T03:13:05.812Z,7.47
2019-03-27T03:15:29.558Z,8.80
2019-03-27T03:17:50.511Z,7.78
2019-03-27T03:20:12.311Z,10.15
2019-03-27T03:22:32.818Z,9.10
2019-03-27T03:24:53.399Z,10.85
2019-03-27T03:27:14.017Z,14.78
2019-03-27T03:29:34.623Z,11.85
2019-03-27T03:31:56.121Z,9.00
2019-03-27T03:34:16.669Z,9.00
2019-03-27T03:36:37.153Z,8.83
2019-03-27T03:38:57.692Z,9.30
2019-03-27T03:41:18.388Z,10.10
2019-03-27T03:43:38.925Z,10.35
2019-03-27T03:45:59.484Z,8.50
2019-03-27T03:48:20.164Z,9.50
2019-03-27T03:50:42.568Z,9.75
2019-03-27T03:53:02.921Z,4.97
2019-03-27T03:55:26.075Z,8.50
2019-03-27T04:00:08.151Z,11.93
2019-03-27T04:02:31.882Z,9.28
2019-03-27T04:04:54.708Z,10.93
2019-03-27T04:07:14.957Z,9.70
2019-03-27T04:09:36.663Z,10.05
2019-03-27T04:11:57.195Z,8.83
2019-03-27T04:14:17.731Z,11.50
2019-03-27T04:16:38.235Z,8.93
2019-03-27T04:18:58.790Z,8.48
2019-03-27T04:21:19.315Z,9.45
2019-03-27T04:23:39.924Z,13.18
2019-03-27T04:26:09.565Z,11.12
2019-03-27T04:28:22.384Z,7.87
2019-03-27T04:30:44.109Z,9.05
2019-03-27T04:33:04.780Z,13.00
2019-03-27T04:35:25.291Z,20.30
2019-03-27T04:37:52.127Z,10.35
2019-03-27T04:40:15.643Z,12.98
2019-03-27T04:42:36.318Z,11.50
2019-03-27T04:44:56.846Z,11.88
2019-03-27T04:47:31.585Z,11.48
2019-03-27T04:49:39.349Z,15.48
2019-03-27T04:51:59.961Z,12.95
2019-03-27T04:54:20.467Z,10.68
2019-03-27T04:56:41.086Z,11.95
2019-03-27T04:59:01.896Z,11.08
2019-03-27T05:01:22.464Z,16.73
2019-03-27T05:03:43.254Z,12.15
2019-03-27T05:06:03.950Z,15.55
2019-03-27T05:08:24.841Z,12.95
2019-03-27T05:10:45.470Z,13.10
2019-03-27T05:13:05.919Z,10.78
2019-03-27T05:15:26.475Z,12.95
2019-03-27T05:17:47.023Z,14.45
2019-03-27T05:20:08.348Z,14.98
2019-03-27T05:22:29.062Z,12.20
2019-03-27T05:24:49.604Z,13.80
2019-03-27T05:27:10.108Z,12.90
2019-03-27T05:29:30.590Z,13.45
2019-03-27T05:31:51.133Z,13.55
2019-03-27T05:34:11.711Z,10.98
2019-03-27T05:36:32.218Z,10.70
2019-03-27T05:38:52.770Z,13.08
2019-03-27T05:41:13.318Z,14.90
2019-03-27T05:43:33.852Z,15.43
2019-03-27T05:45:54.489Z,16.70
2019-03-27T05:48:14.965Z,11.33
2019-03-27T05:50:35.515Z,11.00
2019-03-27T05:52:56.024Z,11.95
2019-03-27T05:55:16.648Z,10.90
2019-03-27T05:57:37.168Z,12.98
2019-03-27T05:59:57.957Z,13.70
2019-03-27T06:02:18.557Z,10.85
2019-03-27T06:04:39.050Z,11.10
2019-03-27T06:06:59.651Z,12.73
2019-03-27T06:09:20.204Z,13.48
2019-03-27T06:11:40.684Z,14.23
2019-03-27T06:14:01.210Z,12.53
2019-03-27T06:16:21.797Z,12.78
2019-03-27T06:18:42.332Z,16.15
2019-03-27T06:21:02.967Z,13.58
2019-03-27T06:23:23.539Z,15.15
2019-03-27T06:25:44.999Z,15.58
2019-03-27T06:28:05.755Z,18.37
2019-03-27T06:30:45.769Z,14.25
2019-03-27T06:33:06.392Z,10.95
2019-03-27T06:35:26.982Z,20.37
2019-03-27T06:37:47.524Z,13.03
2019-03-27T06:40:08.940Z,14.55
2019-03-27T06:42:29.460Z,38.28
2019-03-27T06:44:50.019Z,33.18
2019-03-27T06:47:11.475Z,23.50
2019-03-27T06:49:32.169Z,20.02
2019-03-27T06:51:52.853Z,22.32
2019-03-27T06:54:13.380Z,28.35
2019-03-27T06:56:34.086Z,19.30
2019-03-27T06:58:55.155Z,26.48
2019-03-27T07:01:15.946Z,22.40
2019-03-27T07:03:36.616Z,30.65
2019-03-27T07:05:57.189Z,20.43
2019-03-27T07:08:17.780Z,21.75
2019-03-27T07:10:38.470Z,27.37
2019-03-27T07:12:59.084Z,18.30
2019-03-27T07:15:19.835Z,21.45
2019-03-27T07:17:40.492Z,15.68
2019-03-27T07:20:01.205Z,37.70
2019-03-27T07:22:21.976Z,20.77
2019-03-27T07:24:42.701Z,21.45
2019-03-27T07:27:04.399Z,19.45
2019-03-27T07:29:24.934Z,12.37
2019-03-27T07:31:45.614Z,19.87
2019-03-27T07:34:06.173Z,23.27
2019-03-27T07:36:26.781Z,15.05
2019-03-27T07:38:47.342Z,20.25
2019-03-27T07:41:08.979Z,21.35
2019-03-27T07:43:29.473Z,22.55
2019-03-27T07:45:50.115Z,18.07
2019-03-27T07:48:10.796Z,20.97
2019-03-27T07:50:31.467Z,18.75
2019-03-27T07:52:51.989Z,17.80
2019-03-27T07:55:19.126Z,13.50
2019-03-27T07:57:34.825Z,11.00
2019-03-27T07:59:55.399Z,14.93
2019-03-27T08:02:16.022Z,12.23
2019-03-27T08:04:36.541Z,14.05
2019-03-27T08:06:57.180Z,20.15
2019-03-27T08:09:18.843Z,22.00
2019-03-27T08:11:39.572Z,19.95
2019-03-27T08:14:00.335Z,17.25
2019-03-27T08:16:20.956Z,13.50
2019-03-27T08:18:41.494Z,14.55
2019-03-27T08:21:02.001Z,16.57
2019-03-27T08:23:22.615Z,12.10
2019-03-27T08:25:43.254Z,9.80
2019-03-27T08:28:04.213Z,11.10
2019-03-27T08:30:25.103Z,11.30
2019-03-27T08:32:45.669Z,18.65
2019-03-27T08:35:07.812Z,13.13
2019-03-27T08:37:28.321Z,14.10
2019-03-27T08:39:48.991Z,17.10
2019-03-27T08:42:09.460Z,14.58
2019-03-27T08:44:30.138Z,14.23
2019-03-27T08:46:50.778Z,12.73
2019-03-27T08:49:21.701Z,8.18
2019-03-27T08:51:33.686Z,9.70
2019-03-27T08:53:54.360Z,6.60
2019-03-27T08:56:14.882Z,5.08
2019-03-27T08:58:35.394Z,6.67
2019-03-27T09:00:56.789Z,6.65
2019-03-27T09:03:18.143Z,8.73
2019-03-27T09:05:38.836Z,7.08
2019-03-27T09:07:59.333Z,12.53
2019-03-27T09:10:19.979Z,5.08
2019-03-27T09:12:40.217Z,6.73
2019-03-27T09:15:00.898Z,5.30
2019-03-27T09:17:21.251Z,5.45
2019-03-27T09:19:41.730Z,9.23
2019-03-27T09:22:02.352Z,5.58
2019-03-27T09:24:22.930Z,5.15
2019-03-27T09:26:43.553Z,5.85
2019-03-27T09:29:03.687Z,6.60
2019-03-27T09:31:23.868Z,8.43
2019-03-27T09:33:44.346Z,6.10
2019-03-27T09:36:05.219Z,6.72
2019-03-27T09:38:26.008Z,5.47
2019-03-27T09:40:46.630Z,6.37
2019-03-27T09:43:06.812Z,4.37
2019-03-27T09:45:26.717Z,7.00
2019-03-27T09:47:47.424Z,3.98
2019-03-27T09:50:07.871Z,5.03
2019-03-27T09:52:29.452Z,4.15
2019-03-27T09:54:50.165Z,4.60
2019-03-27T09:57:10.796Z,6.45
2019-03-27T09:59:31.376Z,4.65
2019-03-27T10:01:52.193Z,6.45
2019-03-27T10:04:12.654Z,6.22
2019-03-27T10:06:33.288Z,3.67
2019-03-27T10:08:53.899Z,4.15
2019-03-27T10:11:15.600Z,5.00
2019-03-27T10:13:36.422Z,5.12
2019-03-27T10:15:56.971Z,3.70
2019-03-27T10:18:17.435Z,4.65
2019-03-27T10:20:39.178Z,3.40
2019-03-27T10:22:59.815Z,4.72
2019-03-27T10:25:20.501Z,4.75
2019-03-27T10:27:42.315Z,3.00
2019-03-27T10:30:02.857Z,4.20
2019-03-27T10:32:23.493Z,5.12
2019-03-27T10:34:44.040Z,5.05
2019-03-27T10:37:05.646Z,4.10
2019-03-27T10:39:26.220Z,5.28
2019-03-27T10:41:46.898Z,3.77
2019-03-27T10:44:07.573Z,5.30
2019-03-27T10:46:28.233Z,4.17
2019-03-27T10:48:52.934Z,7.80
2019-03-27T10:51:11.165Z,7.05
2019-03-27T10:53:31.944Z,4.90
2019-03-27T10:55:53.526Z,3.95
2019-03-27T10:58:20.950Z,5.95
2019-03-27T11:00:36.610Z,4.15
2019-03-27T11:02:57.381Z,3.55
2019-03-27T11:05:17.956Z,8.30
2019-03-27T11:07:38.506Z,5.30
2019-03-27T11:09:59.082Z,3.47
2019-03-27T11:12:19.595Z,4.53
2019-03-27T11:14:40.829Z,7.53
2019-03-27T11:17:01.360Z,3.77
2019-03-27T11:19:21.993Z,5.20
2019-03-27T11:21:42.665Z,4.12
2019-03-27T11:24:03.100Z,4.05
2019-03-27T11:26:23.856Z,6.08
2019-03-27T11:28:44.319Z,5.65
2019-03-27T11:31:04.915Z,3.17
2019-03-27T11:33:28.800Z,6.67
2019-03-27T11:35:47.780Z,4.90
2019-03-27T11:38:08.543Z,3.05
2019-03-27T11:40:29.123Z,7.10
2019-03-27T11:42:49.631Z,4.17
2019-03-27T11:45:10.526Z,6.05
2019-03-27T11:47:31.102Z,9.55
2019-03-27T11:49:51.851Z,3.35
2019-03-27T11:52:12.402Z,5.17
2019-03-27T11:54:32.874Z,7.00
2019-03-27T11:56:53.457Z,2.95
2019-03-27T11:59:14.079Z,3.37
2019-03-27T12:01:42.035Z,3.60
2019-03-27T12:03:56.746Z,3.10
2019-03-27T12:06:17.344Z,6.35
2019-03-27T12:08:37.818Z,5.00
2019-03-27T12:10:58.488Z,2.75
2019-03-27T12:13:19.331Z,4.85
2019-03-27T12:15:41.506Z,4.95
2019-03-27T12:18:02.372Z,3.02
2019-03-27T12:20:22.903Z,3.65
2019-03-27T12:22:56.996Z,2.45
2019-03-27T12:25:06.608Z,4.00
2019-03-27T12:27:28.003Z,3.70
2019-03-27T12:29:48.449Z,2.87
2019-03-27T12:32:09.168Z,5.20
2019-03-27T12:34:29.676Z,3.02
2019-03-27T12:37:02.109Z,3.58
2019-03-27T12:39:22.789Z,2.60
2019-03-27T12:41:43.335Z,2.65
2019-03-27T12:44:04.108Z,9.00
2019-03-27T12:46:24.717Z,7.35
2019-03-27T12:48:45.329Z,3.50
2019-03-27T12:51:12.724Z,4.30
2019-03-27T12:53:28.287Z,5.42
2019-03-27T12:55:48.827Z,4.47
2019-03-27T12:58:21.704Z,3.02
2019-03-27T13:00:42.014Z,3.90
2019-03-27T13:03:02.750Z,4.33
2019-03-27T13:05:23.362Z,3.67
2019-03-27T13:07:50.050Z,4.65
2019-03-27T13:10:06.267Z,3.67
2019-03-27T13:12:32.829Z,3.47
2019-03-27T13:14:53.177Z,6.53
2019-03-27T13:17:13.770Z,3.50
2019-03-27T13:19:33.647Z,4.83
2019-03-27T13:21:54.192Z,5.20
2019-03-27T13:24:14.910Z,3.95
2019-03-27T13:26:35.503Z,7.87
2019-03-27T13:28:56.129Z,4.12
2019-03-27T13:31:16.827Z,5.60
2019-03-27T13:33:37.409Z,4.62
2019-03-27T13:35:58.153Z,5.25
2019-03-27T13:38:19.145Z,5.80
2019-03-27T13:40:39.692Z,7.67
2019-03-27T13:43:00.513Z,6.15
2019-03-27T13:45:21.196Z,8.00
2019-03-27T13:47:41.832Z,4.62
2019-03-27T13:50:02.471Z,3.85
2019-03-27T13:52:23.348Z,5.53
2019-03-27T13:54:56.579Z,4.03
2019-03-27T13:57:16.775Z,5.45
2019-03-27T13:59:37.392Z,4.50
2019-03-27T14:01:59.033Z,4.30
2019-03-27T14:04:19.877Z,5.47
2019-03-27T14:06:40.741Z,3.87
2019-03-27T14:09:01.184Z,4.95
2019-03-27T14:11:23.331Z,6.12
2019-03-27T14:13:43.909Z,6.42
2019-03-27T14:16:05.190Z,5.40
2019-03-27T14:18:25.770Z,5.15
2019-03-27T14:20:46.344Z,5.55
2019-03-27T14:23:06.935Z,7.22
2019-03-27T14:25:29.002Z,5.65
2019-03-27T14:27:49.588Z,6.95
2019-03-27T14:30:13.129Z,6.67
2019-03-27T14:32:34.275Z,5.42
2019-03-27T14:34:54.775Z,6.08
2019-03-27T14:37:15.635Z,8.08
2019-03-27T14:39:36.218Z,6.03
2019-03-27T14:41:56.748Z,5.35
2019-03-27T14:44:18.583Z,5.45
2019-03-27T14:46:39.081Z,4.08
2019-03-27T14:48:59.641Z,11.65
2019-03-27T14:51:20.428Z,6.85
2019-03-27T14:53:41.127Z,4.42
2019-03-27T14:56:01.730Z,9.60
2019-03-27T14:58:22.353Z,6.00
2019-03-27T15:00:42.870Z,5.42
2019-03-27T15:03:03.420Z,4.70
2019-03-27T15:05:24.067Z,7.17
2019-03-27T15:07:44.682Z,6.97
2019-03-27T15:10:07.952Z,8.50
2019-03-27T15:12:27.992Z,8.55
2019-03-27T15:14:48.568Z,6.25
2019-03-27T15:17:09.077Z,5.28
2019-03-27T15:19:29.807Z,8.93
2019-03-27T15:21:50.353Z,5.80
2019-03-27T15:24:10.996Z,5.45
2019-03-27T15:26:31.580Z,6.55
2019-03-27T15:28:52.353Z,6.92
2019-03-27T15:31:20.294Z,5.87
2019-03-27T15:33:35.299Z,5.08
2019-03-27T15:35:56.821Z,5.65
2019-03-27T15:38:18.533Z,6.35
2019-03-27T15:40:44.075Z,4.47
2019-03-27T15:43:04.640Z,6.30
2019-03-27T15:45:25.322Z,4.97
2019-03-27T15:47:45.853Z,8.68
2019-03-27T15:50:06.689Z,11.48
2019-03-27T15:52:36.188Z,6.37
2019-03-27T15:54:49.108Z,8.70
2019-03-27T15:57:09.768Z,8.75
2019-03-27T15:59:30.439Z,8.50
2019-03-27T16:01:51.026Z,6.45
2019-03-27T16:04:11.682Z,5.60
2019-03-27T16:06:32.272Z,6.22
2019-03-27T16:08:52.860Z,10.23
2019-03-27T16:11:13.789Z,6.60
2019-03-27T16:13:37.485Z,8.75
2019-03-27T16:15:58.098Z,7.65
2019-03-27T16:18:18.707Z,9.85
2019-03-27T16:20:39.333Z,15.90
2019-03-27T16:23:00.203Z,6.35
2019-03-27T16:25:20.785Z,5.50
2019-03-27T16:27:41.261Z,7.28
2019-03-27T16:30:01.843Z,10.10
2019-03-27T16:32:22.725Z,6.42
2019-03-27T16:34:44.250Z,7.67
2019-03-27T16:37:04.821Z,6.42
2019-03-27T16:39:25.553Z,9.68
2019-03-27T16:41:46.142Z,9.08
2019-03-27T16:44:07.795Z,6.35
2019-03-27T16:46:28.540Z,7.03
2019-03-27T16:48:50.688Z,14.25
2019-03-27T16:51:11.364Z,9.73
2019-03-27T16:53:31.825Z,8.60
2019-03-27T16:55:52.405Z,12.53
2019-03-27T16:58:13.023Z,10.13
2019-03-27T17:00:33.616Z,9.13
2019-03-27T17:02:54.269Z,10.85
2019-03-27T17:05:15.921Z,11.43
2019-03-27T17:07:36.799Z,11.18
2019-03-27T17:09:57.501Z,12.53
2019-03-27T17:12:18.127Z,8.08
2019-03-27T17:14:38.654Z,9.80
2019-03-27T17:16:59.374Z,11.10
2019-03-27T17:19:20.094Z,8.65
2019-03-27T17:21:43.177Z,9.48
2019-03-27T17:24:03.601Z,8.80
2019-03-27T17:26:24.188Z,11.12
2019-03-27T17:28:44.776Z,8.63
2019-03-27T17:31:05.450Z,12.93
2019-03-27T17:33:26.046Z,7.12
2019-03-27T17:35:46.614Z,11.83
2019-03-27T17:38:07.248Z,9.60
2019-03-27T17:40:28.041Z,9.70
2019-03-27T17:42:48.602Z,8.43
2019-03-27T17:45:09.221Z,8.68
2019-03-27T17:47:29.820Z,8.55
2019-03-27T17:49:50.332Z,9.65
2019-03-27T17:52:10.978Z,9.20
2019-03-27T17:54:31.616Z,7.45
2019-03-27T17:56:52.242Z,10.13
2019-03-27T17:59:12.788Z,11.35
2019-03-27T18:01:33.736Z,9.55
2019-03-27T18:03:54.359Z,12.55
2019-03-27T18:06:15.193Z,13.62
2019-03-27T18:08:35.800Z,10.88
2019-03-27T18:10:56.453Z,11.57
2019-03-27T18:13:17.090Z,7.97
2019-03-27T18:15:37.658Z,8.05
2019-03-27T18:17:58.199Z,12.00
2019-03-27T18:20:18.793Z,7.62
2019-03-27T18:22:51.844Z,9.90
2019-03-27T18:25:12.168Z,13.25
2019-03-27T18:27:32.786Z,10.58
2019-03-27T18:29:53.342Z,13.70
2019-03-27T18:32:13.986Z,23.80
2019-03-27T18:34:34.587Z,12.68
2019-03-27T18:36:55.361Z,16.02
2019-03-27T18:39:15.891Z,17.07
2019-03-27T18:41:36.533Z,20.82
2019-03-27T18:43:57.167Z,19.77
2019-03-27T18:46:17.816Z,14.43
2019-03-27T18:48:38.460Z,15.35
2019-03-27T18:50:59.343Z,14.10
2019-03-27T18:53:19.959Z,13.68
2019-03-27T18:55:41.391Z,14.45
2019-03-27T18:58:02.308Z,14.23
2019-03-27T19:00:23.242Z,12.53
2019-03-27T19:02:43.949Z,15.08
2019-03-27T19:05:07.137Z,20.48
2019-03-27T19:07:27.195Z,10.78
2019-03-27T19:09:47.840Z,17.70
2019-03-27T19:12:08.460Z,12.88
2019-03-27T19:14:29.290Z,9.98
2019-03-27T19:16:49.993Z,8.90
2019-03-27T19:19:10.587Z,13.15
2019-03-27T19:21:31.194Z,20.70
2019-03-27T19:23:51.928Z,16.85
2019-03-27T19:26:12.638Z,14.90
2019-03-27T19:28:33.240Z,16.57
2019-03-27T19:30:53.886Z,22.60
2019-03-27T19:33:14.718Z,23.05
2019-03-27T19:35:35.495Z,20.68
2019-03-27T19:37:56.404Z,22.87
2019-03-27T19:40:17.008Z,19.95
2019-03-27T19:42:37.722Z,18.05
2019-03-27T19:44:58.368Z,27.10
2019-03-27T19:47:19.118Z,18.60
2019-03-27T19:49:39.806Z,19.37
2019-03-27T19:52:00.436Z,18.75
2019-03-27T19:54:27.432Z,23.42
2019-03-27T19:56:44.358Z,18.77
2019-03-27T19:59:05.051Z,22.17
2019-03-27T20:01:25.828Z,18.27
2019-03-27T20:03:46.434Z,16.23
2019-03-27T20:06:07.237Z,16.07
2019-03-27T20:08:27.786Z,17.82
2019-03-27T20:10:48.584Z,18.75
2019-03-27T20:13:09.162Z,22.90
2019-03-27T20:15:29.813Z,19.23
2019-03-27T20:17:50.515Z,14.90
2019-03-27T20:20:11.288Z,15.43
2019-03-27T20:22:32.185Z,12.43
2019-03-27T20:24:52.885Z,16.48
2019-03-27T20:27:15.284Z,17.57
2019-03-27T20:29:35.967Z,21.27
2019-03-27T20:31:56.631Z,20.62
2019-03-27T20:34:17.583Z,17.23
2019-03-27T20:36:38.882Z,17.80
2019-03-27T20:39:00.418Z,17.07
2019-03-27T20:41:22.526Z,20.88
2019-03-27T20:43:43.186Z,19.05
2019-03-27T20:46:03.878Z,21.85
2019-03-27T20:48:24.495Z,15.23
2019-03-27T20:50:45.109Z,12.20
2019-03-27T20:53:06.021Z,14.87
2019-03-27T20:55:30.508Z,16.77
2019-03-27T20:57:48.260Z,12.37
2019-03-27T21:00:10.457Z,22.00
2019-03-27T21:02:31.298Z,13.68
2019-03-27T21:04:51.969Z,15.68
2019-03-27T21:07:12.778Z,15.05
2019-03-27T21:09:33.566Z,15.23
2019-03-27T21:11:56.099Z,14.03
2019-03-27T21:14:15.947Z,13.37
2019-03-27T21:16:36.536Z,14.58
2019-03-27T21:18:57.245Z,14.23
2019-03-27T21:21:17.829Z,13.60
2019-03-27T21:23:38.364Z,11.97
2019-03-27T21:25:58.652Z,12.17
2019-03-27T21:28:19.274Z,16.02
2019-03-27T21:30:39.996Z,12.47
2019-03-27T21:33:00.566Z,12.25
2019-03-27T21:35:21.240Z,13.68
2019-03-27T21:37:41.925Z,13.53
2019-03-27T21:40:02.740Z,11.18
2019-03-27T21:42:23.493Z,11.30
2019-03-27T21:44:44.109Z,14.05
2019-03-27T21:47:04.781Z,12.33
2019-03-27T21:49:25.450Z,14.00
2019-03-27T21:51:46.080Z,14.55
2019-03-27T21:54:06.949Z,12.45
2019-03-27T21:56:27.439Z,11.70
2019-03-27T21:58:48.119Z,13.13
2019-03-27T22:01:08.824Z,13.45
2019-03-27T22:03:29.494Z,11.10
2019-03-27T22:05:50.220Z,15.15
2019-03-27T22:08:11.142Z,18.50
2019-03-27T22:10:31.794Z,12.33
2019-03-27T22:12:52.357Z,12.82
2019-03-27T22:15:13.159Z,14.05
2019-03-27T22:17:33.856Z,11.25
2019-03-27T22:19:54.490Z,14.47
2019-03-27T22:22:15.139Z,13.50
2019-03-27T22:24:35.743Z,13.50
2019-03-27T22:26:56.507Z,12.85
2019-03-27T22:29:17.082Z,12.18
2019-03-27T22:31:37.695Z,12.23
2019-03-27T22:33:58.608Z,11.15
2019-03-27T22:36:19.195Z,10.95
2019-03-27T22:38:39.807Z,14.18
2019-03-27T22:41:00.395Z,11.22
2019-03-27T22:43:20.979Z,13.58
2019-03-27T22:45:41.600Z,16.73
2019-03-27T22:48:02.286Z,15.10
2019-03-27T22:50:22.927Z,19.23
2019-03-27T22:52:43.521Z,15.80
2019-03-27T22:55:06.312Z,14.58
2019-03-27T22:57:26.599Z,13.45
2019-03-27T22:59:47.183Z,14.30
2019-03-27T23:02:08.184Z,12.73
2019-03-27T23:04:29.142Z,15.72
2019-03-27T23:06:50.125Z,17.15
2019-03-27T23:09:10.922Z,12.18
2019-03-27T23:11:31.831Z,15.23
2019-03-27T23:13:52.732Z,14.40
2019-03-27T23:16:13.674Z,13.60
2019-03-27T23:18:34.545Z,16.70
2019-03-27T23:20:55.551Z,12.15
2019-03-27T23:23:16.461Z,12.23
2019-03-27T23:25:37.433Z,11.57
2019-03-27T23:27:58.423Z,12.33
2019-03-27T23:30:50.984Z,13.60
2019-03-27T23:33:11.609Z,11.35
2019-03-27T23:35:32.244Z,15.65
2019-03-27T23:37:52.861Z,14.18
2019-03-27T23:40:13.697Z,17.57
2019-03-27T23:42:34.360Z,15.13
2019-03-27T23:44:55.487Z,20.30
2019-03-27T23:47:16.063Z,23.75
2019-03-27T23:49:36.573Z,16.97
2019-03-27T23:51:57.079Z,12.18
2019-03-27T23:54:17.681Z,14.93
2019-03-27T23:56:38.264Z,13.28
2019-03-27T23:58:58.761Z,15.00
